createdAt,value
2018-05-05T00:02:01.563Z,22.73
2018-05-05T00:04:36.581Z,24.80
2018-05-05T00:07:04.163Z,23.47
2018-05-05T00:09:32.099Z,23.03
2018-05-05T00:11:59.717Z,24.47
2018-05-05T00:14:27.274Z,28.37
2018-05-05T00:16:54.850Z,31.17
2018-05-05T00:19:22.597Z,27.57
2018-05-05T00:21:50.210Z,28.67
2018-05-05T00:24:17.793Z,26.73
2018-05-05T00:26:45.389Z,30.30
2018-05-05T00:29:13.053Z,29.90
2018-05-05T00:31:40.655Z,20.00
2018-05-05T00:34:08.234Z,22.63
2018-05-05T00:36:35.819Z,24.70
2018-05-05T00:39:03.528Z,24.03
2018-05-05T00:41:32.084Z,24.60
2018-05-05T00:43:59.663Z,24.63
2018-05-05T00:46:27.267Z,25.90
2018-05-05T00:48:54.851Z,25.67
2018-05-05T00:51:22.551Z,26.00
2018-05-05T00:53:50.123Z,22.20
2018-05-05T00:56:17.772Z,21.77
2018-05-05T00:58:45.360Z,22.97
2018-05-05T01:01:12.936Z,21.20
2018-05-05T01:03:41.247Z,20.83
2018-05-05T01:06:08.907Z,21.50
2018-05-05T01:08:36.561Z,19.70
2018-05-05T01:11:04.077Z,25.10
2018-05-05T01:13:31.640Z,21.03
2018-05-05T01:15:59.226Z,22.70
2018-05-05T01:18:26.745Z,19.17
2018-05-05T01:20:54.261Z,27.23
2018-05-05T01:23:21.827Z,19.60
2018-05-05T01:25:49.492Z,20.07
2018-05-05T01:28:17.118Z,20.47
2018-05-05T01:30:44.701Z,18.50
2018-05-05T01:33:12.342Z,22.93
2018-05-05T01:35:39.959Z,24.73
2018-05-05T01:38:07.593Z,18.83
2018-05-05T01:40:35.182Z,21.07
2018-05-05T01:43:02.768Z,20.73
2018-05-05T01:45:30.299Z,23.70
2018-05-05T01:47:57.810Z,20.40
2018-05-05T01:50:25.640Z,22.37
2018-05-05T01:52:53.289Z,21.00
2018-05-05T01:55:20.845Z,22.07
2018-05-05T01:57:48.377Z,19.27
2018-05-05T02:00:15.887Z,20.00
2018-05-05T02:02:54.146Z,18.77
2018-05-05T02:05:22.248Z,19.93
2018-05-05T02:07:49.843Z,20.17
2018-05-05T02:10:17.540Z,18.80
2018-05-05T02:12:45.149Z,18.93
2018-05-05T02:15:14.028Z,19.17
2018-05-05T02:17:42.038Z,19.23
2018-05-05T02:20:09.672Z,18.43
2018-05-05T02:22:37.281Z,19.67
2018-05-05T02:25:04.909Z,20.13
2018-05-05T02:27:32.516Z,19.37
2018-05-05T02:30:00.117Z,18.87
2018-05-05T02:32:27.724Z,18.93
2018-05-05T02:34:55.339Z,17.20
2018-05-05T02:37:23.051Z,16.67
2018-05-05T02:39:50.733Z,17.33
2018-05-05T02:42:18.368Z,19.60
2018-05-05T02:44:45.931Z,19.90
2018-05-05T02:47:13.535Z,18.27
2018-05-05T02:49:41.962Z,20.00
2018-05-05T02:52:09.556Z,18.40
2018-05-05T02:54:37.145Z,19.57
2018-05-05T02:57:04.731Z,20.10
2018-05-05T02:59:32.361Z,22.97
2018-05-05T03:02:00.358Z,17.80
2018-05-05T03:04:28.334Z,17.20
2018-05-05T03:06:56.352Z,19.13
2018-05-05T03:09:24.014Z,17.90
2018-05-05T03:11:51.645Z,19.13
2018-05-05T03:14:19.205Z,26.43
2018-05-05T03:16:46.770Z,28.80
2018-05-05T03:19:14.363Z,30.60
2018-05-05T03:21:41.910Z,21.47
2018-05-05T03:24:09.481Z,28.03
2018-05-05T03:26:37.107Z,27.43
2018-05-05T03:29:04.702Z,26.77
2018-05-05T03:31:32.293Z,35.07
2018-05-05T03:33:59.862Z,31.00
2018-05-05T03:36:27.499Z,28.90
2018-05-05T03:41:28.972Z,31.83
2018-05-05T03:43:56.572Z,34.40
2018-05-05T03:46:24.188Z,32.80
2018-05-05T03:48:51.747Z,32.50
2018-05-05T03:51:19.337Z,30.23
2018-05-05T03:53:46.917Z,34.50
2018-05-05T03:56:14.481Z,30.80
2018-05-05T03:58:41.997Z,29.20
2018-05-05T04:01:21.316Z,33.83
2018-05-05T04:03:55.917Z,35.20
2018-05-05T04:06:23.449Z,31.80
2018-05-05T04:08:50.977Z,30.90
2018-05-05T04:11:18.533Z,24.83
2018-05-05T04:13:46.118Z,30.40
2018-05-05T04:16:13.675Z,27.00
2018-05-05T04:18:41.200Z,31.83
2018-05-05T04:21:08.702Z,24.20
2018-05-05T04:23:36.499Z,33.17
2018-05-05T04:26:04.060Z,32.30
2018-05-05T04:28:32.527Z,29.77
2018-05-05T04:31:00.045Z,31.80
2018-05-05T04:33:27.572Z,25.93
2018-05-05T04:35:55.127Z,35.10
2018-05-05T04:38:22.694Z,36.10
2018-05-05T04:40:50.293Z,28.77
2018-05-05T04:43:17.859Z,35.93
2018-05-05T04:45:45.405Z,31.53
2018-05-05T04:48:13.495Z,33.13
2018-05-05T04:50:41.080Z,30.93
2018-05-05T04:53:08.766Z,36.77
2018-05-05T04:55:36.368Z,30.80
2018-05-05T04:58:03.919Z,38.83
2018-05-05T05:00:31.533Z,30.60
2018-05-05T05:02:59.092Z,31.10
2018-05-05T05:05:26.644Z,28.20
2018-05-05T05:07:54.226Z,38.47
2018-05-05T05:10:21.805Z,35.13
2018-05-05T05:12:49.385Z,37.00
2018-05-05T05:15:17.348Z,36.23
2018-05-05T05:17:44.905Z,31.80
2018-05-05T05:20:12.484Z,36.30
2018-05-05T05:22:40.094Z,39.27
2018-05-05T05:25:07.647Z,38.43
2018-05-05T05:27:35.226Z,36.50
2018-05-05T05:30:02.786Z,37.10
2018-05-05T05:32:30.381Z,43.57
2018-05-05T05:34:57.956Z,35.30
2018-05-05T05:37:25.562Z,35.60
2018-05-05T05:39:53.161Z,35.47
2018-05-05T05:42:20.714Z,37.40
2018-05-05T05:44:48.275Z,39.93
2018-05-05T05:47:15.854Z,43.87
2018-05-05T05:49:43.415Z,36.33
2018-05-05T05:52:11.057Z,43.53
2018-05-05T05:54:38.551Z,38.20
2018-05-05T05:57:06.126Z,39.97
2018-05-05T05:59:33.713Z,43.63
2018-05-05T06:02:01.277Z,45.90
2018-05-05T06:04:31.052Z,34.27
2018-05-05T06:06:58.616Z,32.83
2018-05-05T06:09:26.184Z,40.93
2018-05-05T06:11:53.753Z,39.53
2018-05-05T06:14:21.328Z,37.07
2018-05-05T06:16:48.891Z,40.17
2018-05-05T06:19:16.676Z,38.27
2018-05-05T06:21:44.274Z,35.93
2018-05-05T06:24:11.834Z,39.07
2018-05-05T06:26:39.386Z,41.23
2018-05-05T06:29:06.976Z,42.63
2018-05-05T06:31:34.532Z,39.93
2018-05-05T06:34:02.160Z,33.97
2018-05-05T06:36:29.826Z,36.80
2018-05-05T06:38:57.396Z,48.57
2018-05-05T06:41:24.924Z,31.83
2018-05-05T06:43:52.441Z,39.90
2018-05-05T06:46:20.011Z,41.80
2018-05-05T06:48:47.564Z,37.27
2018-05-05T06:51:15.160Z,42.97
2018-05-05T06:53:42.724Z,33.70
2018-05-05T06:56:10.345Z,33.67
2018-05-05T06:58:37.933Z,38.10
2018-05-05T07:01:05.514Z,42.80
2018-05-05T07:03:33.073Z,34.60
2018-05-05T07:06:00.639Z,35.37
2018-05-05T07:08:28.355Z,34.20
2018-05-05T07:10:55.972Z,29.77
2018-05-05T07:13:23.578Z,30.70
2018-05-05T07:15:51.135Z,32.83
2018-05-05T07:20:52.396Z,31.30
2018-05-05T07:23:20.020Z,37.40
2018-05-05T07:25:47.623Z,36.07
2018-05-05T07:28:15.187Z,32.27
2018-05-05T07:30:42.886Z,32.43
2018-05-05T07:33:10.999Z,35.20
2018-05-05T07:35:38.588Z,40.43
2018-05-05T07:38:06.141Z,35.00
2018-05-05T07:40:33.707Z,31.30
2018-05-05T07:43:01.278Z,33.70
2018-05-05T07:45:28.830Z,33.20
2018-05-05T07:47:56.441Z,31.60
2018-05-05T07:50:23.980Z,30.50
2018-05-05T07:52:51.576Z,28.80
2018-05-05T07:55:19.178Z,31.13
2018-05-05T07:57:46.742Z,38.30
2018-05-05T08:00:14.320Z,35.43
2018-05-05T08:02:47.073Z,31.53
2018-05-05T08:05:20.252Z,34.77
2018-05-05T08:07:47.807Z,35.13
2018-05-05T08:10:15.361Z,35.07
2018-05-05T08:12:42.945Z,30.77
2018-05-05T08:15:10.605Z,34.00
2018-05-05T08:17:38.252Z,33.90
2018-05-05T08:20:05.859Z,45.53
2018-05-05T08:22:33.405Z,32.53
2018-05-05T08:25:00.995Z,33.17
2018-05-05T08:27:28.621Z,34.37
2018-05-05T08:29:56.201Z,33.43
2018-05-05T08:34:57.756Z,38.10
2018-05-05T08:37:25.610Z,31.57
2018-05-05T08:39:53.361Z,32.43
2018-05-05T08:42:20.949Z,32.93
2018-05-05T08:44:48.545Z,33.00
2018-05-05T08:47:16.235Z,31.70
2018-05-05T08:49:43.824Z,28.63
2018-05-05T08:52:11.420Z,33.70
2018-05-05T08:54:38.983Z,29.43
2018-05-05T08:57:06.536Z,33.10
2018-05-05T08:59:34.113Z,25.03
2018-05-05T09:02:01.698Z,44.13
2018-05-05T09:04:29.299Z,28.50
2018-05-05T09:06:56.852Z,28.93
2018-05-05T09:09:24.494Z,30.40
2018-05-05T09:11:52.146Z,28.17
2018-05-05T09:14:19.685Z,23.53
2018-05-05T09:16:47.225Z,29.13
2018-05-05T09:19:15.165Z,25.13
2018-05-05T09:21:42.767Z,27.70
2018-05-05T09:24:10.341Z,26.30
2018-05-05T09:26:37.913Z,21.90
2018-05-05T09:29:05.665Z,23.77
2018-05-05T09:31:33.249Z,26.20
2018-05-05T09:34:00.898Z,25.07
2018-05-05T09:36:28.447Z,25.20
2018-05-05T09:38:56.087Z,26.43
2018-05-05T09:41:23.643Z,23.30
2018-05-05T09:43:51.310Z,29.73
2018-05-05T09:46:18.871Z,25.53
2018-05-05T09:48:46.450Z,23.47
2018-05-05T09:51:14.432Z,27.37
2018-05-05T09:53:42.053Z,30.03
2018-05-05T09:56:09.608Z,23.97
2018-05-05T09:58:37.168Z,19.70
2018-05-05T10:01:05.509Z,19.97
2018-05-05T10:03:34.834Z,23.30
2018-05-05T10:06:03.511Z,20.47
2018-05-05T10:08:31.581Z,24.67
2018-05-05T10:10:59.182Z,18.00
2018-05-05T10:13:26.826Z,22.37
2018-05-05T10:15:55.111Z,24.53
2018-05-05T10:18:22.655Z,24.53
2018-05-05T10:20:50.420Z,22.50
2018-05-05T10:23:18.031Z,21.33
2018-05-05T10:25:45.675Z,22.10
2018-05-05T10:28:13.552Z,26.77
2018-05-05T10:30:41.125Z,19.20
2018-05-05T10:33:08.721Z,20.27
2018-05-05T10:35:36.383Z,23.07
2018-05-05T10:38:03.966Z,21.80
2018-05-05T10:40:31.566Z,19.27
2018-05-05T10:42:59.168Z,22.00
2018-05-05T10:45:26.802Z,24.10
2018-05-05T10:47:54.433Z,19.63
2018-05-05T10:50:22.089Z,20.60
2018-05-05T10:52:49.635Z,19.33
2018-05-05T10:55:17.648Z,17.70
2018-05-05T10:57:45.333Z,19.63
2018-05-05T11:00:12.918Z,27.90
2018-05-05T11:02:40.501Z,23.43
2018-05-05T11:05:08.154Z,22.00
2018-05-05T11:07:35.737Z,20.20
2018-05-05T11:10:03.320Z,19.37
2018-05-05T11:12:30.885Z,18.60
2018-05-05T11:14:58.425Z,24.80
2018-05-05T11:17:26.136Z,21.37
2018-05-05T11:19:53.711Z,25.60
2018-05-05T11:22:21.261Z,20.83
2018-05-05T11:24:48.776Z,22.37
2018-05-05T11:27:16.268Z,23.37
2018-05-05T11:29:43.783Z,22.13
2018-05-05T11:32:11.355Z,24.43
2018-05-05T11:34:39.062Z,20.63
2018-05-05T11:37:06.874Z,22.90
2018-05-05T11:39:34.433Z,23.67
2018-05-05T11:42:01.979Z,23.80
2018-05-05T11:44:29.634Z,20.03
2018-05-05T11:46:57.244Z,29.23
2018-05-05T11:49:25.062Z,22.33
2018-05-05T11:51:52.631Z,18.17
2018-05-05T11:54:20.197Z,23.43
2018-05-05T11:56:47.744Z,24.13
2018-05-05T11:59:15.308Z,19.47
2018-05-05T12:01:43.101Z,24.10
2018-05-05T12:04:10.618Z,23.97
2018-05-05T12:06:38.205Z,20.57
2018-05-05T12:09:05.882Z,20.20
2018-05-05T12:11:33.539Z,16.30
2018-05-05T12:14:01.145Z,17.93
2018-05-05T12:16:28.686Z,18.17
2018-05-05T12:18:56.270Z,17.50
2018-05-05T12:21:23.878Z,17.73
2018-05-05T12:23:51.457Z,17.57
2018-05-05T12:26:19.056Z,20.83
2018-05-05T12:28:46.620Z,21.90
2018-05-05T12:31:14.335Z,21.77
2018-05-05T12:33:41.891Z,20.70
2018-05-05T12:36:09.432Z,21.37
2018-05-05T12:38:37.056Z,24.40
2018-05-05T12:41:04.607Z,30.80
2018-05-05T12:43:32.207Z,18.60
2018-05-05T12:45:59.842Z,15.83
2018-05-05T12:48:27.425Z,17.13
2018-05-05T12:50:54.985Z,18.03
2018-05-05T12:53:22.719Z,17.70
2018-05-05T12:55:50.322Z,18.90
2018-05-05T12:58:17.944Z,16.37
2018-05-05T13:00:45.571Z,17.10
2018-05-05T13:03:13.255Z,18.30
2018-05-05T13:05:40.858Z,18.87
2018-05-05T13:08:08.457Z,25.50
2018-05-05T13:10:36.013Z,21.27
2018-05-05T13:13:03.585Z,21.70
2018-05-05T13:15:31.200Z,26.30
2018-05-05T13:17:58.729Z,21.23
2018-05-05T13:20:26.245Z,20.70
2018-05-05T13:22:53.769Z,21.93
2018-05-05T13:25:21.320Z,16.90
2018-05-05T13:27:48.825Z,18.50
2018-05-05T13:30:16.384Z,21.30
2018-05-05T13:32:43.984Z,21.93
2018-05-05T13:35:11.746Z,23.23
2018-05-05T13:37:40.508Z,19.67
2018-05-05T13:40:08.104Z,17.13
2018-05-05T13:42:35.687Z,18.50
2018-05-05T13:45:03.243Z,17.83
2018-05-05T13:47:36.002Z,25.30
2018-05-05T13:50:06.049Z,18.53
2018-05-05T13:52:35.544Z,17.63
2018-05-05T13:55:03.383Z,16.20
2018-05-05T13:57:32.003Z,20.53
2018-05-05T13:59:59.729Z,17.13
2018-05-05T14:02:27.320Z,16.57
2018-05-05T14:04:54.930Z,15.27
2018-05-05T14:07:22.975Z,15.37
2018-05-05T14:09:50.627Z,15.87
2018-05-05T14:12:18.234Z,14.73
2018-05-05T14:14:45.920Z,15.40
2018-05-05T14:17:13.571Z,17.17
2018-05-05T14:19:41.839Z,14.30
2018-05-05T14:24:46.721Z,20.83
2018-05-05T14:27:14.400Z,13.70
2018-05-05T14:29:42.098Z,12.00
2018-05-05T14:32:10.306Z,12.17
2018-05-05T14:34:37.881Z,13.30
2018-05-05T14:37:05.818Z,12.97
2018-05-05T14:39:33.424Z,13.23
2018-05-05T14:42:00.987Z,12.30
2018-05-05T14:44:28.570Z,12.93
2018-05-05T14:46:56.149Z,13.87
2018-05-05T14:49:24.155Z,12.33
2018-05-05T14:51:51.796Z,11.53
2018-05-05T14:54:19.397Z,11.10
2018-05-05T14:56:47.024Z,11.80
2018-05-05T14:59:14.637Z,13.00
2018-05-05T15:01:42.642Z,11.47
2018-05-05T15:04:10.233Z,12.97
2018-05-05T15:06:37.811Z,13.30
2018-05-05T15:09:06.253Z,11.07
2018-05-05T15:11:33.912Z,9.63
2018-05-05T15:14:01.511Z,10.80
2018-05-05T15:16:29.070Z,9.90
2018-05-05T15:18:57.663Z,8.80
2018-05-05T15:21:25.320Z,10.80
2018-05-05T15:23:53.017Z,11.93
2018-05-05T15:26:20.802Z,13.13
2018-05-05T15:28:48.377Z,8.97
2018-05-05T15:31:15.969Z,9.77
2018-05-05T15:33:43.517Z,9.40
2018-05-05T15:36:11.096Z,10.63
2018-05-05T15:38:38.699Z,10.07
2018-05-05T15:41:06.300Z,9.27
2018-05-05T15:43:33.855Z,7.97
2018-05-05T15:46:01.447Z,13.23
2018-05-05T15:48:29.165Z,9.77
2018-05-05T15:50:56.715Z,9.03
2018-05-05T15:53:24.273Z,7.40
2018-05-05T15:55:51.876Z,9.57
2018-05-05T15:58:19.473Z,17.23
2018-05-05T16:00:47.024Z,9.83
2018-05-05T16:03:14.790Z,7.40
2018-05-05T16:05:42.395Z,8.70
2018-05-05T16:08:09.997Z,9.80
2018-05-05T16:10:40.232Z,8.13
2018-05-05T16:13:12.184Z,7.50
2018-05-05T16:18:37.889Z,9.03
2018-05-05T16:23:56.429Z,7.37
2018-05-05T16:26:23.979Z,8.87
2018-05-05T16:28:51.470Z,6.77
2018-05-05T16:31:19.025Z,7.93
2018-05-05T16:33:46.564Z,10.40
2018-05-05T16:36:14.109Z,8.00
2018-05-05T16:38:41.662Z,7.90
2018-05-05T16:41:09.322Z,6.20
2018-05-05T16:46:14.017Z,10.90
2018-05-05T16:48:41.643Z,7.00
2018-05-05T16:51:09.183Z,7.00
2018-05-05T16:53:36.732Z,7.43
2018-05-05T16:56:04.301Z,8.00
2018-05-05T16:58:31.915Z,7.43
2018-05-05T17:00:59.520Z,6.90
2018-05-05T17:03:27.075Z,6.10
2018-05-05T17:05:54.672Z,6.93
2018-05-05T17:08:22.241Z,11.93
2018-05-05T17:10:49.853Z,8.90
2018-05-05T17:13:17.451Z,15.57
2018-05-05T17:15:45.146Z,31.50
2018-05-05T17:18:12.685Z,20.00
2018-05-05T17:20:40.266Z,16.00
2018-05-05T17:23:07.893Z,12.03
2018-05-05T17:25:35.463Z,8.40
2018-05-05T17:28:03.044Z,11.20
2018-05-05T17:30:30.548Z,11.90
2018-05-05T17:32:58.081Z,8.60
2018-05-05T17:35:25.836Z,6.53
2018-05-05T17:37:53.396Z,10.37
2018-05-05T17:40:20.993Z,7.97
2018-05-05T17:42:49.018Z,13.73
2018-05-05T17:45:16.598Z,10.97
2018-05-05T17:47:44.159Z,14.97
2018-05-05T17:50:11.775Z,12.73
2018-05-05T17:52:39.396Z,9.73
2018-05-05T17:55:07.028Z,9.30
2018-05-05T17:57:34.614Z,26.80
2018-05-05T18:00:02.245Z,33.43
2018-05-05T18:02:29.808Z,34.40
2018-05-05T18:04:59.027Z,31.23
2018-05-05T18:10:12.831Z,31.47
2018-05-05T18:12:42.482Z,25.00
2018-05-05T18:15:10.234Z,11.50
2018-05-05T18:17:38.307Z,10.20
2018-05-05T18:20:05.906Z,9.27
2018-05-05T18:22:33.560Z,12.73
2018-05-05T18:25:01.143Z,10.53
2018-05-05T18:27:28.822Z,8.77
2018-05-05T18:29:56.618Z,9.00
2018-05-05T18:32:24.204Z,9.77
2018-05-05T18:34:51.829Z,7.67
2018-05-05T18:37:19.412Z,8.13
2018-05-05T18:39:48.099Z,11.23
2018-05-05T18:42:16.681Z,8.77
2018-05-05T18:44:44.313Z,10.10
2018-05-05T18:47:11.945Z,13.70
2018-05-05T18:49:40.536Z,16.43
2018-05-05T18:52:08.265Z,9.50
2018-05-05T18:54:39.019Z,11.53
2018-05-05T18:57:06.954Z,7.70
2018-05-05T18:59:36.179Z,8.57
2018-05-05T19:02:04.152Z,14.77
2018-05-05T19:04:32.837Z,15.00
2018-05-05T19:07:00.881Z,18.37
2018-05-05T19:09:28.608Z,17.70
2018-05-05T19:11:56.244Z,17.33
2018-05-05T19:14:23.882Z,17.07
2018-05-05T19:16:51.526Z,12.87
2018-05-05T19:19:19.216Z,11.07
2018-05-05T19:21:46.918Z,7.67
2018-05-05T19:24:14.596Z,7.50
2018-05-05T19:26:42.188Z,7.40
2018-05-05T19:29:10.919Z,8.63
2018-05-05T19:31:38.598Z,9.70
2018-05-05T19:34:06.272Z,12.60
2018-05-05T19:36:34.709Z,7.50
2018-05-05T19:39:02.367Z,8.07
2018-05-05T19:41:29.984Z,8.87
2018-05-05T19:43:57.590Z,9.83
2018-05-05T19:48:59.044Z,18.63
2018-05-05T19:51:26.565Z,12.10
2018-05-05T19:53:54.114Z,14.27
2018-05-05T19:56:21.678Z,11.37
2018-05-05T19:58:49.219Z,10.70
2018-05-05T20:01:16.749Z,10.33
2018-05-05T20:03:51.178Z,11.50
2018-05-05T20:06:19.738Z,9.30
2018-05-05T20:08:47.372Z,9.80
2018-05-05T20:11:15.639Z,9.13
2018-05-05T20:13:43.316Z,8.80
2018-05-05T20:16:10.897Z,9.83
2018-05-05T20:18:38.591Z,9.60
2018-05-05T20:21:06.214Z,10.63
2018-05-05T20:23:33.993Z,12.20
2018-05-05T20:26:01.620Z,10.80
2018-05-05T20:28:34.053Z,9.37
2018-05-05T20:31:01.670Z,10.00
2018-05-05T20:33:29.516Z,11.30
2018-05-05T20:35:57.195Z,9.97
2018-05-05T20:38:24.779Z,8.17
2018-05-05T20:40:52.494Z,9.23
2018-05-05T20:43:21.358Z,7.60
2018-05-05T20:45:49.092Z,8.10
2018-05-05T20:48:16.709Z,7.63
2018-05-05T20:50:44.853Z,7.97
2018-05-05T20:53:13.548Z,10.20
2018-05-05T20:55:41.164Z,7.80
2018-05-05T20:58:08.832Z,8.20
2018-05-05T21:00:36.447Z,8.60
2018-05-05T21:03:04.065Z,6.97
2018-05-05T21:05:31.804Z,9.40
2018-05-05T21:07:59.361Z,7.70
2018-05-05T21:10:27.097Z,7.97
2018-05-05T21:12:54.697Z,7.30
2018-05-05T21:15:22.747Z,7.00
2018-05-05T21:17:50.336Z,6.33
2018-05-05T21:20:17.961Z,7.17
2018-05-05T21:22:45.570Z,7.90
2018-05-05T21:25:13.903Z,7.40
2018-05-05T21:27:41.706Z,10.13
2018-05-05T21:30:09.292Z,8.83
2018-05-05T21:32:36.895Z,8.03
2018-05-05T21:35:04.516Z,10.93
2018-05-05T21:37:32.311Z,8.13
2018-05-05T21:39:59.944Z,9.00
2018-05-05T21:42:27.532Z,9.13
2018-05-05T21:44:55.114Z,6.67
2018-05-05T21:47:22.811Z,9.43
2018-05-05T21:49:50.451Z,9.10
2018-05-05T21:52:18.052Z,10.23
2018-05-05T21:54:45.698Z,6.37
2018-05-05T21:57:13.379Z,9.77
2018-05-05T21:59:40.959Z,11.03
2018-05-05T22:02:18.282Z,9.03
2018-05-05T22:04:48.645Z,10.20
2018-05-05T22:07:21.822Z,7.83
2018-05-05T22:09:49.439Z,5.20
2018-05-05T22:12:17.024Z,5.07
2018-05-05T22:14:44.545Z,6.43
2018-05-05T22:17:12.150Z,7.37
2018-05-05T22:19:39.769Z,9.07
2018-05-05T22:22:07.362Z,10.57
2018-05-05T22:24:35.042Z,6.30
2018-05-05T22:27:02.628Z,7.83
2018-05-05T22:29:30.183Z,9.47
2018-05-05T22:31:57.765Z,7.23
2018-05-05T22:34:25.518Z,9.33
2018-05-05T22:36:53.112Z,7.17
2018-05-05T22:39:20.972Z,6.10
2018-05-05T22:41:48.642Z,7.90
2018-05-05T22:44:16.232Z,6.80
2018-05-05T22:46:43.824Z,9.63
2018-05-05T22:49:11.460Z,4.80
2018-05-05T22:51:39.315Z,5.70
2018-05-05T22:54:06.869Z,9.10
2018-05-05T22:56:34.552Z,8.17
2018-05-05T22:59:02.151Z,7.80
2018-05-05T23:01:29.741Z,6.10
2018-05-05T23:03:57.314Z,10.60
2018-05-05T23:06:24.893Z,5.20
2018-05-05T23:08:52.396Z,6.20
2018-05-05T23:11:19.953Z,5.20
2018-05-05T23:13:47.631Z,5.67
2018-05-05T23:16:15.237Z,4.77
2018-05-05T23:18:42.840Z,5.90
2018-05-05T23:21:11.158Z,5.13
2018-05-05T23:23:38.814Z,7.40
2018-05-05T23:26:05.675Z,6.53
2018-05-05T23:28:33.261Z,4.53
2018-05-05T23:31:00.890Z,4.13
2018-05-05T23:33:28.503Z,6.87
2018-05-05T23:35:56.072Z,11.70
2018-05-05T23:38:23.745Z,3.33
2018-05-05T23:40:51.363Z,3.60
2018-05-05T23:43:19.175Z,3.53
2018-05-05T23:45:46.843Z,4.80
2018-05-05T23:48:14.498Z,12.23
2018-05-05T23:50:42.133Z,8.80
2018-05-05T23:53:09.754Z,6.00
2018-05-05T23:55:37.805Z,3.93
2018-05-05T23:58:05.390Z,5.83
